createdAt,value
2022-09-03T00:01:27.666Z,4.72
2022-09-03T00:03:58.346Z,5.35
2022-09-03T00:06:29.095Z,7.78
2022-09-03T00:09:00.056Z,6.70
2022-09-03T00:11:30.803Z,5.18
2022-09-03T00:14:03.085Z,3.83
2022-09-03T00:16:35.211Z,3.95
2022-09-03T00:19:04.233Z,4.55
2022-09-03T00:21:38.049Z,5.20
2022-09-03T00:24:07.250Z,4.13
2022-09-03T00:26:44.845Z,4.90
2022-09-03T00:29:16.435Z,6.13
2022-09-03T00:31:47.609Z,3.53
2022-09-03T00:34:18.241Z,4.00
2022-09-03T00:36:46.669Z,6.40
2022-09-03T00:39:16.215Z,6.85
2022-09-03T00:41:50.012Z,7.93
2022-09-03T00:44:28.302Z,5.00
2022-09-03T00:46:58.933Z,5.20
2022-09-03T00:49:33.116Z,6.78
2022-09-03T00:52:05.017Z,4.47
2022-09-03T00:54:40.908Z,5.10
2022-09-03T00:57:25.766Z,4.38
2022-09-03T00:59:59.040Z,4.40
2022-09-03T01:02:30.226Z,5.80
2022-09-03T01:05:01.849Z,5.60
2022-09-03T01:07:34.727Z,6.43
2022-09-03T01:10:07.559Z,5.43
2022-09-03T01:12:39.836Z,3.20
2022-09-03T01:15:13.873Z,5.28
2022-09-03T01:17:53.939Z,3.60
2022-09-03T01:20:28.884Z,3.55
2022-09-03T01:23:29.110Z,3.10
2022-09-03T01:26:04.418Z,3.70
2022-09-03T01:28:43.450Z,8.68
2022-09-03T01:31:18.675Z,5.45
2022-09-03T01:33:51.494Z,5.10
2022-09-03T01:36:23.609Z,12.30
2022-09-03T01:38:53.239Z,7.32
2022-09-03T01:41:42.885Z,5.05
2022-09-03T01:44:16.828Z,8.20
2022-09-03T01:46:46.136Z,8.30
2022-09-03T01:49:20.985Z,6.35
2022-09-03T01:51:49.431Z,5.22
2022-09-03T01:54:40.859Z,3.85
2022-09-03T01:57:35.736Z,4.72
2022-09-03T02:00:08.569Z,3.35
2022-09-03T02:02:43.540Z,4.90
2022-09-03T02:05:12.708Z,3.90
2022-09-03T02:07:42.050Z,3.60
2022-09-03T02:10:12.438Z,4.88
2022-09-03T02:12:43.151Z,3.42
2022-09-03T02:15:14.222Z,5.82
2022-09-03T02:17:42.787Z,2.80
2022-09-03T02:20:12.908Z,4.90
2022-09-03T02:22:41.255Z,3.80
2022-09-03T02:25:11.032Z,3.47
2022-09-03T02:27:39.240Z,4.35
2022-09-03T02:30:08.746Z,2.78
2022-09-03T02:32:38.277Z,4.10
2022-09-03T02:35:07.075Z,4.45
2022-09-03T02:37:35.263Z,3.28
2022-09-03T02:40:06.592Z,3.72
2022-09-03T02:42:35.028Z,5.65
2022-09-03T02:45:08.530Z,4.80
2022-09-03T02:47:38.039Z,4.65
2022-09-03T02:50:06.905Z,4.07
2022-09-03T02:52:35.102Z,4.70
2022-09-03T02:55:03.222Z,3.05
2022-09-03T02:57:31.402Z,11.25
2022-09-03T02:59:59.620Z,2.70
2022-09-03T03:02:27.830Z,2.60
2022-09-03T03:04:57.378Z,3.20
2022-09-03T03:07:26.567Z,3.78
2022-09-03T03:09:54.765Z,5.70
2022-09-03T03:12:22.921Z,4.25
2022-09-03T03:14:51.024Z,2.97
2022-09-03T03:17:19.140Z,4.32
2022-09-03T03:19:47.282Z,3.42
2022-09-03T03:22:16.828Z,6.47
2022-09-03T03:24:45.061Z,8.30
2022-09-03T03:27:14.876Z,3.72
2022-09-03T03:29:43.042Z,3.70
2022-09-03T03:32:11.240Z,3.10
2022-09-03T03:34:39.973Z,4.05
2022-09-03T03:37:08.105Z,4.82
2022-09-03T03:39:37.684Z,2.95
2022-09-03T03:42:06.092Z,4.10
2022-09-03T03:44:34.231Z,3.83
2022-09-03T03:47:02.390Z,4.50
2022-09-03T03:49:30.578Z,6.82
2022-09-03T03:51:58.799Z,5.57
2022-09-03T03:54:27.036Z,2.83
2022-09-03T03:56:56.523Z,4.68
2022-09-03T03:59:24.726Z,3.53
2022-09-03T04:01:53.068Z,2.80
2022-09-03T04:04:21.229Z,2.60
2022-09-03T04:06:49.369Z,4.20
2022-09-03T04:09:17.558Z,4.78
2022-09-03T04:11:45.675Z,2.72
2022-09-03T04:14:15.229Z,3.70
2022-09-03T04:16:43.406Z,3.13
2022-09-03T04:19:11.726Z,5.68
2022-09-03T04:21:40.031Z,2.70
2022-09-03T04:24:08.513Z,6.82
2022-09-03T04:26:36.655Z,3.40
2022-09-03T04:29:05.998Z,4.20
2022-09-03T04:31:36.013Z,3.75
2022-09-03T04:34:06.525Z,6.28
2022-09-03T04:36:35.056Z,4.65
2022-09-03T04:39:03.194Z,4.93
2022-09-03T04:41:32.173Z,5.53
2022-09-03T04:44:00.542Z,5.57
2022-09-03T04:46:33.680Z,6.10
2022-09-03T04:49:03.795Z,4.68
2022-09-03T04:51:32.077Z,2.60
2022-09-03T04:54:01.292Z,4.18
2022-09-03T04:56:31.229Z,7.53
2022-09-03T04:59:01.550Z,5.32
2022-09-03T05:01:30.648Z,4.25
2022-09-03T05:03:59.049Z,7.82
2022-09-03T05:06:28.990Z,5.35
2022-09-03T05:08:57.271Z,3.80
2022-09-03T05:11:26.079Z,3.45
2022-09-03T05:13:54.949Z,6.00
2022-09-03T05:16:23.567Z,2.90
2022-09-03T05:18:54.051Z,8.15
2022-09-03T05:21:22.283Z,6.55
2022-09-03T05:23:51.961Z,5.00
2022-09-03T05:26:21.155Z,4.40
2022-09-03T05:28:49.474Z,12.05
2022-09-03T05:31:18.818Z,6.45
2022-09-03T05:33:47.883Z,4.70
2022-09-03T05:36:17.521Z,3.95
2022-09-03T05:38:45.782Z,7.65
2022-09-03T05:41:15.675Z,7.72
2022-09-03T05:43:44.163Z,2.65
2022-09-03T05:46:13.352Z,5.63
2022-09-03T05:48:43.085Z,5.10
2022-09-03T05:51:12.190Z,4.65
2022-09-03T05:53:40.932Z,5.38
2022-09-03T05:56:10.906Z,7.00
2022-09-03T05:58:43.429Z,5.18
2022-09-03T06:01:12.848Z,3.70
2022-09-03T06:03:41.142Z,4.90
2022-09-03T06:06:09.582Z,8.30
2022-09-03T06:08:38.655Z,2.85
2022-09-03T06:11:07.032Z,4.57
2022-09-03T06:13:35.458Z,6.32
2022-09-03T06:16:07.384Z,4.05
2022-09-03T06:18:35.589Z,6.68
2022-09-03T06:21:04.916Z,4.72
2022-09-03T06:23:33.225Z,2.40
2022-09-03T06:26:05.329Z,3.45
2022-09-03T06:28:34.947Z,5.32
2022-09-03T06:31:04.666Z,7.22
2022-09-03T06:33:33.227Z,4.90
2022-09-03T06:36:03.766Z,5.95
2022-09-03T06:38:35.879Z,2.25
2022-09-03T06:41:05.098Z,3.10
2022-09-03T06:43:34.442Z,4.05
2022-09-03T06:46:05.438Z,4.43
2022-09-03T06:48:34.473Z,4.40
2022-09-03T06:51:03.246Z,4.43
2022-09-03T06:53:32.301Z,9.13
2022-09-03T06:56:01.724Z,2.92
2022-09-03T06:58:30.337Z,10.25
2022-09-03T07:01:06.203Z,4.05
2022-09-03T07:03:34.445Z,2.88
2022-09-03T07:06:02.872Z,4.50
2022-09-03T07:08:32.847Z,4.28
2022-09-03T07:11:01.661Z,3.83
2022-09-03T07:13:29.805Z,5.53
2022-09-03T07:16:02.806Z,9.60
2022-09-03T07:18:32.870Z,4.78
2022-09-03T07:21:01.515Z,4.25
2022-09-03T07:23:30.356Z,6.25
2022-09-03T07:25:59.080Z,7.63
2022-09-03T07:28:27.565Z,7.43
2022-09-03T07:30:56.095Z,4.95
2022-09-03T07:33:24.214Z,3.78
2022-09-03T07:35:53.951Z,7.22
2022-09-03T07:38:23.689Z,8.77
2022-09-03T07:40:59.811Z,3.55
2022-09-03T07:43:28.965Z,11.38
2022-09-03T07:45:57.998Z,15.55
2022-09-03T07:48:26.113Z,7.38
2022-09-03T07:51:01.107Z,10.55
2022-09-03T07:53:29.403Z,17.65
2022-09-03T07:56:02.770Z,11.70
2022-09-03T07:58:31.077Z,14.25
2022-09-03T08:00:59.309Z,13.98
2022-09-03T08:03:27.625Z,9.55
2022-09-03T08:05:57.576Z,12.35
2022-09-03T08:08:25.851Z,14.85
2022-09-03T08:11:08.030Z,10.38
2022-09-03T08:13:36.135Z,12.93
2022-09-03T08:16:05.891Z,11.85
2022-09-03T08:18:38.037Z,15.20
2022-09-03T08:21:14.885Z,14.00
2022-09-03T08:23:43.613Z,13.95
2022-09-03T08:26:11.947Z,16.13
2022-09-03T08:28:40.705Z,14.50
2022-09-03T08:31:11.661Z,8.73
2022-09-03T08:33:40.641Z,15.70
2022-09-03T08:36:12.736Z,13.15
2022-09-03T08:38:43.753Z,12.18
2022-09-03T08:41:14.845Z,9.85
2022-09-03T08:44:16.521Z,8.77
2022-09-03T08:46:50.507Z,12.93
2022-09-03T08:49:22.005Z,9.10
2022-09-03T08:51:51.709Z,10.85
2022-09-03T08:54:19.813Z,11.75
2022-09-03T08:56:47.916Z,9.15
2022-09-03T08:59:16.242Z,9.07
2022-09-03T09:01:48.664Z,6.63
2022-09-03T09:04:23.756Z,10.95
2022-09-03T09:06:57.218Z,10.55
2022-09-03T09:09:29.470Z,7.80
2022-09-03T09:12:02.277Z,6.82
2022-09-03T09:14:35.569Z,7.40
2022-09-03T09:17:09.392Z,10.73
2022-09-03T09:19:43.330Z,7.68
2022-09-03T09:22:15.049Z,12.18
2022-09-03T09:24:44.630Z,8.77
2022-09-03T09:27:17.235Z,12.60
2022-09-03T09:29:47.545Z,16.45
2022-09-03T09:32:15.817Z,30.33
2022-09-03T09:34:46.468Z,27.23
2022-09-03T09:37:19.900Z,34.17
2022-09-03T09:39:56.780Z,22.90
2022-09-03T09:42:25.102Z,26.58
2022-09-03T09:44:53.270Z,25.05
2022-09-03T09:47:25.625Z,34.97
2022-09-03T09:49:55.052Z,27.50
2022-09-03T09:52:25.940Z,24.27
2022-09-03T09:54:55.355Z,26.10
2022-09-03T09:57:24.360Z,31.20
2022-09-03T10:00:03.102Z,31.25
2022-09-03T10:02:42.322Z,26.30
2022-09-03T10:05:14.892Z,25.27
2022-09-03T10:07:44.379Z,19.80
2022-09-03T10:10:17.014Z,18.77
2022-09-03T10:12:49.503Z,28.98
2022-09-03T10:15:24.589Z,21.17
2022-09-03T10:18:01.185Z,20.05
2022-09-03T10:20:37.273Z,22.77
2022-09-03T10:23:11.672Z,38.00
2022-09-03T10:25:52.014Z,36.95
2022-09-03T10:28:20.306Z,31.30
2022-09-03T10:31:17.636Z,42.65
2022-09-03T10:33:49.225Z,36.40
2022-09-03T10:36:20.434Z,44.45
2022-09-03T10:38:54.658Z,44.20
2022-09-03T10:41:30.498Z,40.80
2022-09-03T10:44:17.428Z,38.15
2022-09-03T10:46:52.604Z,44.53
2022-09-03T10:49:26.082Z,44.47
2022-09-03T10:51:59.015Z,49.25
2022-09-03T10:54:39.330Z,42.10
2022-09-03T10:57:17.460Z,49.03
2022-09-03T10:59:53.922Z,52.75
2022-09-03T11:02:44.659Z,49.22
2022-09-03T11:05:16.325Z,40.97
2022-09-03T11:07:46.464Z,37.75
2022-09-03T11:10:18.972Z,44.45
2022-09-03T11:12:48.813Z,34.72
2022-09-03T11:15:27.711Z,44.40
2022-09-03T11:17:57.916Z,37.60
2022-09-03T11:20:26.768Z,35.08
2022-09-03T11:22:56.998Z,43.95
2022-09-03T11:25:35.480Z,37.80
2022-09-03T11:28:11.714Z,42.25
2022-09-03T11:30:49.738Z,38.80
2022-09-03T11:33:19.560Z,35.70
2022-09-03T11:35:47.744Z,36.13
2022-09-03T11:38:24.623Z,30.92
2022-09-03T11:41:14.316Z,39.25
2022-09-03T11:43:42.484Z,27.70
2022-09-03T11:46:12.947Z,31.60
2022-09-03T11:48:43.789Z,25.30
2022-09-03T11:51:32.746Z,22.55
2022-09-03T11:54:01.898Z,21.52
2022-09-03T11:56:32.033Z,24.83
2022-09-03T11:59:05.294Z,27.15
2022-09-03T12:01:33.609Z,26.27
2022-09-03T12:04:03.554Z,28.75
2022-09-03T12:06:57.192Z,25.35
2022-09-03T12:09:39.064Z,25.60
2022-09-03T12:12:16.308Z,17.55
2022-09-03T12:14:48.690Z,18.67
2022-09-03T12:17:23.925Z,19.70
2022-09-03T12:19:53.017Z,19.83
2022-09-03T12:22:22.145Z,20.05
2022-09-03T12:24:50.817Z,18.95
2022-09-03T12:27:24.705Z,18.42
2022-09-03T12:29:58.102Z,13.75
2022-09-03T12:32:26.730Z,13.68
2022-09-03T12:34:55.153Z,10.73
2022-09-03T12:40:24.030Z,13.95
2022-09-03T12:42:54.012Z,13.43
2022-09-03T12:45:23.697Z,8.90
2022-09-03T12:47:53.261Z,13.55
2022-09-03T12:50:22.350Z,12.52
2022-09-03T12:52:51.483Z,12.40
2022-09-03T12:55:28.075Z,9.57
2022-09-03T12:58:02.554Z,10.35
2022-09-03T13:00:31.749Z,10.93
2022-09-03T13:03:01.536Z,12.02
2022-09-03T13:05:32.133Z,9.88
2022-09-03T13:08:05.405Z,11.27
2022-09-03T13:10:35.110Z,6.68
2022-09-03T13:13:08.521Z,11.80
2022-09-03T13:15:36.797Z,10.80
2022-09-03T13:18:27.115Z,9.68
2022-09-03T13:21:08.202Z,8.57
2022-09-03T13:23:44.603Z,9.30
2022-09-03T13:26:20.089Z,6.05
2022-09-03T13:29:09.348Z,11.52
2022-09-03T13:31:38.798Z,9.40
2022-09-03T13:34:08.594Z,7.35
2022-09-03T13:36:39.756Z,8.15
2022-09-03T13:39:21.960Z,7.47
2022-09-03T13:41:54.185Z,6.13
2022-09-03T13:44:26.211Z,10.98
2022-09-03T13:46:56.171Z,5.35
2022-09-03T13:49:49.637Z,9.30
2022-09-03T13:52:23.003Z,6.28
2022-09-03T13:54:53.983Z,9.52
2022-09-03T13:57:28.150Z,6.32
2022-09-03T13:59:59.384Z,6.65
2022-09-03T14:02:29.861Z,5.15
2022-09-03T14:05:05.557Z,6.07
2022-09-03T14:07:51.823Z,6.13
2022-09-03T14:10:25.835Z,6.28
2022-09-03T14:13:03.362Z,5.43
2022-09-03T14:15:35.281Z,7.65
2022-09-03T14:18:09.624Z,5.60
2022-09-03T14:20:41.039Z,7.07
2022-09-03T14:23:11.633Z,6.13
2022-09-03T14:25:42.783Z,7.55
2022-09-03T14:28:15.135Z,4.72
2022-09-03T14:30:47.521Z,5.72
2022-09-03T14:33:17.967Z,4.68
2022-09-03T14:35:51.757Z,7.43
2022-09-03T14:38:51.747Z,6.78
2022-09-03T14:41:30.095Z,6.60
2022-09-03T14:44:21.428Z,5.68
2022-09-03T14:46:57.675Z,5.10
2022-09-03T14:49:46.047Z,6.22
2022-09-03T14:52:45.406Z,4.88
2022-09-03T14:55:25.695Z,6.95
2022-09-03T14:58:06.744Z,5.25
2022-09-03T15:00:35.542Z,7.10
2022-09-03T15:03:19.046Z,5.63
2022-09-03T15:06:04.671Z,5.47
2022-09-03T15:08:50.443Z,4.43
2022-09-03T15:11:22.198Z,5.78
2022-09-03T15:13:53.107Z,6.32
2022-09-03T15:16:32.614Z,3.92
2022-09-03T15:19:09.026Z,5.03
2022-09-03T15:21:46.065Z,4.78
2022-09-03T15:24:18.256Z,4.15
2022-09-03T15:26:56.634Z,4.45
2022-09-03T15:29:31.186Z,4.75
2022-09-03T15:32:03.583Z,3.97
2022-09-03T15:34:59.757Z,3.15
2022-09-03T15:37:30.156Z,4.32
2022-09-03T15:40:04.539Z,3.85
2022-09-03T15:42:32.815Z,10.45
2022-09-03T15:45:05.594Z,4.88
2022-09-03T15:47:52.006Z,3.83
2022-09-03T15:50:30.493Z,5.32
2022-09-03T15:53:01.623Z,3.67
2022-09-03T15:55:33.467Z,3.47
2022-09-03T15:58:08.319Z,4.53
2022-09-03T16:00:43.448Z,4.47
2022-09-03T16:03:20.430Z,3.65
2022-09-03T16:05:55.539Z,5.60
2022-09-03T16:08:25.473Z,5.03
2022-09-03T16:11:01.726Z,4.78
2022-09-03T16:13:49.992Z,4.72
2022-09-03T16:16:22.279Z,3.63
2022-09-03T16:18:56.931Z,3.95
2022-09-03T16:21:32.098Z,5.90
2022-09-03T16:24:04.348Z,3.35
2022-09-03T16:26:34.659Z,3.13
2022-09-03T16:29:08.997Z,3.83
2022-09-03T16:31:52.588Z,5.50
2022-09-03T16:34:27.045Z,5.28
2022-09-03T16:37:03.626Z,22.73
2022-09-03T16:39:38.001Z,7.18
2022-09-03T16:42:11.947Z,8.93
2022-09-03T16:44:49.407Z,10.05
2022-09-03T16:47:22.398Z,9.95
2022-09-03T16:49:54.277Z,9.95
2022-09-03T16:52:38.837Z,9.32
2022-09-03T16:55:19.425Z,12.65
2022-09-03T16:58:00.120Z,15.15
2022-09-03T17:00:31.660Z,18.33
2022-09-03T17:03:26.076Z,14.70
2022-09-03T17:06:42.712Z,18.25
2022-09-03T17:09:19.825Z,9.98
2022-09-03T17:12:00.581Z,8.40
2022-09-03T17:14:52.738Z,12.52
2022-09-03T17:17:27.672Z,12.73
2022-09-03T17:20:00.883Z,12.35
2022-09-03T17:22:39.435Z,9.70
2022-09-03T17:25:18.436Z,9.93
2022-09-03T17:27:52.581Z,11.30
2022-09-03T17:30:23.246Z,9.45
2022-09-03T17:33:25.593Z,10.40
2022-09-03T17:35:56.510Z,9.18
2022-09-03T17:38:31.716Z,9.15
2022-09-03T17:41:08.149Z,11.73
2022-09-03T17:43:42.336Z,6.65
2022-09-03T17:46:17.185Z,7.30
2022-09-03T17:48:51.356Z,9.02
2022-09-03T17:51:32.798Z,8.85
2022-09-03T17:54:05.560Z,5.35
2022-09-03T17:56:41.723Z,6.40
2022-09-03T17:59:13.022Z,7.72
2022-09-03T18:01:49.462Z,11.60
2022-09-03T18:04:23.663Z,7.10
2022-09-03T18:06:55.020Z,9.43
2022-09-03T18:09:26.179Z,9.27
2022-09-03T18:12:04.146Z,13.40
2022-09-03T18:14:34.418Z,8.60
2022-09-03T18:17:04.565Z,12.25
2022-09-03T18:19:53.078Z,14.77
2022-09-03T18:22:39.987Z,8.88
2022-09-03T18:25:26.437Z,14.15
2022-09-03T18:28:16.406Z,12.60
2022-09-03T18:31:01.963Z,25.48
2022-09-03T18:33:48.103Z,12.38
2022-09-03T18:36:33.505Z,24.95
2022-09-03T18:39:26.181Z,13.57
2022-09-03T18:42:17.552Z,14.98
2022-09-03T18:45:21.382Z,13.23
2022-09-03T18:48:20.197Z,11.90
2022-09-03T18:51:10.310Z,11.93
2022-09-03T18:54:00.235Z,13.18
2022-09-03T18:56:51.129Z,12.90
2022-09-03T18:59:46.810Z,9.43
2022-09-03T19:02:40.170Z,11.70
2022-09-03T19:05:30.354Z,10.05
2022-09-03T19:08:19.141Z,8.00
2022-09-03T19:11:07.576Z,6.78
2022-09-03T19:13:54.147Z,9.55
2022-09-03T19:16:44.971Z,8.93
2022-09-03T19:19:59.662Z,6.88
2022-09-03T19:22:47.310Z,8.52
2022-09-03T19:25:33.958Z,5.32
2022-09-03T19:28:26.846Z,8.02
2022-09-03T19:31:20.290Z,6.88
2022-09-03T19:34:08.542Z,5.47
2022-09-03T19:36:58.796Z,5.63
2022-09-03T19:39:56.618Z,8.18
2022-09-03T19:42:45.823Z,5.80
2022-09-03T19:45:34.529Z,7.35
2022-09-03T19:48:24.477Z,14.32
2022-09-03T19:51:17.556Z,8.43
2022-09-03T19:54:05.522Z,11.63
2022-09-03T19:56:51.092Z,7.53
2022-09-03T19:59:37.639Z,10.50
2022-09-03T20:02:23.372Z,13.75
2022-09-03T20:05:10.981Z,8.13
2022-09-03T20:07:57.564Z,7.95
2022-09-03T20:10:26.039Z,22.70
2022-09-03T20:13:01.199Z,14.10
2022-09-03T20:15:33.103Z,12.25
2022-09-03T20:18:03.217Z,17.17
2022-09-03T20:20:34.390Z,19.52
2022-09-03T20:23:05.484Z,16.98
2022-09-03T20:25:50.318Z,12.18
2022-09-03T20:28:26.142Z,11.25
2022-09-03T20:30:57.654Z,8.48
2022-09-03T20:33:35.007Z,10.10
2022-09-03T20:36:08.328Z,11.13
2022-09-03T20:38:49.615Z,13.57
2022-09-03T20:41:24.091Z,9.50
2022-09-03T20:44:17.994Z,13.05
2022-09-03T20:46:54.703Z,8.77
2022-09-03T20:49:26.586Z,24.33
2022-09-03T20:51:56.526Z,12.23
2022-09-03T20:54:31.783Z,11.20
2022-09-03T20:57:14.479Z,13.48
2022-09-03T20:59:50.133Z,11.20
2022-09-03T21:02:25.962Z,12.23
2022-09-03T21:04:59.956Z,9.05
2022-09-03T21:07:35.737Z,10.68
2022-09-03T21:10:08.193Z,12.90
2022-09-03T21:12:42.605Z,8.63
2022-09-03T21:15:14.539Z,7.53
2022-09-03T21:17:51.572Z,12.32
2022-09-03T21:20:24.874Z,10.95
2022-09-03T21:23:01.245Z,6.47
2022-09-03T21:25:31.301Z,11.85
2022-09-03T21:28:03.429Z,15.00
2022-09-03T21:30:31.678Z,9.48
2022-09-03T21:33:03.907Z,14.85
2022-09-03T21:35:34.532Z,11.38
2022-09-03T21:38:05.725Z,17.42
2022-09-03T21:40:34.130Z,16.88
2022-09-03T21:43:09.321Z,13.85
2022-09-03T21:45:41.519Z,16.25
2022-09-03T21:48:11.345Z,21.90
2022-09-03T21:50:48.861Z,14.20
2022-09-03T21:53:19.429Z,15.45
2022-09-03T21:55:52.058Z,13.48
2022-09-03T21:58:26.473Z,14.82
2022-09-03T22:00:55.803Z,12.43
2022-09-03T22:03:24.048Z,14.13
2022-09-03T22:05:54.177Z,11.75
2022-09-03T22:08:25.366Z,13.95
2022-09-03T22:11:00.373Z,17.80
2022-09-03T22:13:31.912Z,12.77
2022-09-03T22:16:06.165Z,11.68
2022-09-03T22:18:37.924Z,13.73
2022-09-03T22:21:12.875Z,13.75
2022-09-03T22:23:46.616Z,24.75
2022-09-03T22:26:22.602Z,10.85
2022-09-03T22:28:58.439Z,8.50
2022-09-03T22:31:28.744Z,13.25
2022-09-03T22:33:59.644Z,14.65
2022-09-03T22:36:28.485Z,9.88
2022-09-03T22:39:16.525Z,13.77
2022-09-03T22:41:55.139Z,14.00
2022-09-03T22:44:33.159Z,10.20
2022-09-03T22:47:05.441Z,9.35
2022-09-03T22:49:36.586Z,7.10
2022-09-03T22:52:17.755Z,7.53
2022-09-03T22:54:53.242Z,8.73
2022-09-03T22:57:21.387Z,10.32
2022-09-03T22:59:55.730Z,7.97
2022-09-03T23:02:24.722Z,7.60
2022-09-03T23:04:57.131Z,8.32
2022-09-03T23:07:28.462Z,9.95
2022-09-03T23:09:58.691Z,11.18
2022-09-03T23:12:40.162Z,7.70
2022-09-03T23:15:11.467Z,12.07
2022-09-03T23:17:41.863Z,10.13
2022-09-03T23:22:41.745Z,10.63
2022-09-03T23:25:11.911Z,8.98
2022-09-03T23:27:42.839Z,6.45
2022-09-03T23:30:12.598Z,10.85
2022-09-03T23:32:40.928Z,6.40
2022-09-03T23:35:12.858Z,7.18
2022-09-03T23:37:49.790Z,10.80
2022-09-03T23:40:28.998Z,6.22
2022-09-03T23:43:15.413Z,13.48
2022-09-03T23:45:47.581Z,7.07
2022-09-03T23:48:20.143Z,10.18
2022-09-03T23:50:52.798Z,6.22
2022-09-03T23:53:28.227Z,8.70
2022-09-03T23:56:03.104Z,6.82
2022-09-03T23:58:38.149Z,5.55
